Time;durP1;ratioP1;P1;durP2;ratioP2;P2;SDS_P1;SDS_P2;PMS_P1;PMS_P2;Temp;Humidity;BMP_temperature;BMP_pressure;BME280_temperature;BME280_humidity;BME280_pressure;Samples;Min_cycle;Max_cycle;Signal;HPM_P1;HPM_P2
2024/02/28 00:00:38;;;;;;;14.15;5.40;;;13.40;93.90;;;;;;5074686;28;20028;-74
2024/02/28 00:03:04;;;;;;;14.48;5.60;;;13.50;94.10;;;;;;5074344;28;20542;-74
2024/02/28 00:05:31;;;;;;;17.58;6.32;;;13.50;93.90;;;;;;5074459;28;20028;-74
2024/02/28 00:07:56;;;;;;;15.68;5.30;;;13.50;94.00;;;;;;5074470;28;20060;-73
2024/02/28 00:10:22;;;;;;;14.73;5.72;;;13.40;93.80;;;;;;5074327;28;20123;-75
2024/02/28 00:12:48;;;;;;;12.88;5.20;;;13.40;93.90;;;;;;5074013;28;20038;-74
2024/02/28 00:15:15;;;;;;;18.27;5.97;;;13.40;94.00;;;;;;5074174;28;20033;-74
2024/02/28 00:17:41;;;;;;;13.57;5.05;;;13.40;93.90;;;;;;5074185;28;20037;-73
2024/02/28 00:20:08;;;;;;;13.48;5.10;;;13.40;94.00;;;;;;5073963;28;20071;-75
2024/02/28 00:22:36;;;;;;;11.82;5.00;;;13.40;94.30;;;;;;5073962;28;20066;-73
2024/02/28 00:25:03;;;;;;;12.82;5.35;;;13.30;94.00;;;;;;5073678;28;20039;-73
2024/02/28 00:27:28;;;;;;;15.20;5.10;;;13.30;93.90;;;;;;5074107;28;20104;-75
2024/02/28 00:29:54;;;;;;;18.25;5.03;;;13.30;93.90;;;;;;5073821;28;20116;-74
2024/02/28 00:32:21;;;;;;;13.98;4.88;;;13.30;94.00;;;;;;5073725;28;20158;-74
2024/02/28 00:34:46;;;;;;;15.50;4.75;;;13.30;94.20;;;;;;5073516;28;20032;-74
2024/02/28 00:37:12;;;;;;;13.73;4.95;;;13.30;94.00;;;;;;5055301;28;20507;-74
2024/02/28 00:39:38;;;;;;;14.68;4.75;;;13.30;93.90;;;;;;5074463;28;20068;-74
2024/02/28 00:42:03;;;;;;;14.63;4.35;;;13.40;94.00;;;;;;5074784;28;20025;-74
2024/02/28 00:44:29;;;;;;;15.48;4.97;;;13.40;93.90;;;;;;5073633;28;20041;-74
2024/02/28 00:46:55;;;;;;;13.15;3.95;;;13.40;93.90;;;;;;5072756;28;20037;-74
2024/02/28 00:49:20;;;;;;;9.90;3.53;;;13.40;93.80;;;;;;5073235;28;20032;-73
2024/02/28 00:51:46;;;;;;;13.82;4.50;;;13.40;93.80;;;;;;5073273;28;20437;-72
2024/02/28 00:54:12;;;;;;;15.13;3.58;;;13.40;93.80;;;;;;5073157;28;20021;-74
2024/02/28 00:56:38;;;;;;;14.02;3.75;;;13.40;93.90;;;;;;5072956;28;20100;-73
2024/02/28 00:59:06;;;;;;;14.15;3.85;;;13.40;93.70;;;;;;5073048;28;20036;-73
2024/02/28 01:01:32;;;;;;;15.60;3.45;;;13.40;93.90;;;;;;5072820;28;20048;-73
2024/02/28 01:03:57;;;;;;;14.00;3.72;;;13.40;93.70;;;;;;5072705;28;20468;-74
2024/02/28 01:06:23;;;;;;;12.52;4.05;;;13.40;93.80;;;;;;5072892;28;20028;-73
2024/02/28 01:08:49;;;;;;;15.43;4.03;;;13.40;93.80;;;;;;5072884;28;20120;-73
2024/02/28 01:11:15;;;;;;;9.18;3.50;;;13.30;93.80;;;;;;5073146;28;20033;-74
2024/02/28 01:13:40;;;;;;;17.02;4.40;;;13.30;94.10;;;;;;5072827;28;20170;-73
2024/02/28 01:16:06;;;;;;;11.80;4.00;;;13.30;94.00;;;;;;5073080;28;20079;-73
2024/02/28 01:18:32;;;;;;;15.38;4.07;;;13.20;94.10;;;;;;5072832;28;20044;-74
2024/02/28 01:20:58;;;;;;;13.13;3.95;;;13.20;94.20;;;;;;5072861;28;20437;-74
2024/02/28 01:23:23;;;;;;;12.50;3.90;;;13.10;94.20;;;;;;5072873;28;20117;-74
2024/02/28 01:25:49;;;;;;;18.92;4.20;;;13.10;94.20;;;;;;5072681;28;20075;-73
2024/02/28 01:28:15;;;;;;;14.93;3.58;;;13.20;94.30;;;;;;5072599;28;20070;-74
2024/02/28 01:30:40;;;;;;;13.73;3.50;;;13.10;94.20;;;;;;5072499;28;20148;-73
2024/02/28 01:33:06;;;;;;;17.90;3.53;;;13.20;94.30;;;;;;5072618;28;20446;-74
2024/02/28 01:35:32;;;;;;;17.83;3.70;;;13.10;94.20;;;;;;5072431;28;20109;-74
2024/02/28 01:37:57;;;;;;;13.35;3.92;;;13.10;94.30;;;;;;5072751;28;20063;-74
2024/02/28 01:40:23;;;;;;;13.80;3.80;;;13.10;94.30;;;;;;5072526;28;20090;-74
2024/02/28 01:42:49;;;;;;;12.25;4.40;;;13.10;94.20;;;;;;5072470;28;20040;-72
2024/02/28 01:45:15;;;;;;;19.85;4.03;;;13.10;94.30;;;;;;5072373;28;20112;-74
2024/02/28 01:47:42;;;;;;;17.05;3.40;;;13.00;94.30;;;;;;5072441;28;20094;-73
2024/02/28 01:50:09;;;;;;;14.95;4.28;;;13.00;94.40;;;;;;5072210;28;20041;-73
2024/02/28 01:52:37;;;;;;;16.42;4.05;;;13.10;94.40;;;;;;5072388;28;20086;-74
2024/02/28 01:55:03;;;;;;;15.95;4.28;;;13.10;94.40;;;;;;5072286;28;20107;-73
2024/02/28 01:57:29;;;;;;;18.83;4.22;;;13.10;94.40;;;;;;5071959;28;20396;-73
2024/02/28 01:59:56;;;;;;;14.43;4.25;;;13.10;94.30;;;;;;5072222;28;20141;-75
2024/02/28 02:02:22;;;;;;;18.55;4.97;;;13.10;94.40;;;;;;5072141;28;20035;-74
2024/02/28 02:04:47;;;;;;;16.70;4.47;;;13.10;94.30;;;;;;5072217;28;20045;-73
2024/02/28 02:07:13;;;;;;;17.85;4.07;;;13.10;94.40;;;;;;5072252;28;20035;-73
2024/02/28 02:09:39;;;;;;;16.45;4.25;;;13.10;94.60;;;;;;5072320;28;20120;-73
2024/02/28 02:12:05;;;;;;;14.35;4.03;;;13.00;94.50;;;;;;5072232;28;20492;-74
2024/02/28 02:14:31;;;;;;;21.17;5.03;;;13.00;94.60;;;;;;5072314;28;20082;-74
2024/02/28 02:16:56;;;;;;;12.45;4.07;;;13.00;94.70;;;;;;5072031;28;20028;-74
2024/02/28 02:19:22;;;;;;;15.82;4.25;;;13.00;94.70;;;;;;5072135;28;20496;-73
2024/02/28 02:21:52;;;;;;;12.20;4.18;;;13.00;94.70;;;;;;5072369;28;20040;-73
2024/02/28 02:24:17;;;;;;;18.00;3.90;;;13.10;94.90;;;;;;5072160;28;20044;-75
2024/02/28 02:26:46;;;;;;;17.52;4.55;;;13.10;94.70;;;;;;5072115;28;20506;-73
2024/02/28 02:29:12;;;;;;;18.60;5.15;;;13.10;94.80;;;;;;5072028;28;20063;-74
2024/02/28 02:31:38;;;;;;;18.00;4.50;;;13.10;94.90;;;;;;5071985;28;20659;-73
2024/02/28 02:34:04;;;;;;;20.90;4.40;;;13.10;94.80;;;;;;5072082;28;20067;-73
2024/02/28 02:36:30;;;;;;;20.17;4.60;;;13.10;94.80;;;;;;5071950;28;20400;-74
2024/02/28 02:38:55;;;;;;;22.17;4.85;;;13.10;94.80;;;;;;5071943;28;20025;-73
2024/02/28 02:41:21;;;;;;;17.20;3.80;;;13.10;94.80;;;;;;5071858;28;20033;-74
2024/02/28 02:43:47;;;;;;;19.42;4.55;;;13.10;94.80;;;;;;5071888;28;20528;-73
2024/02/28 02:46:12;;;;;;;18.17;4.90;;;13.20;94.80;;;;;;5071791;28;20182;-73
2024/02/28 02:48:38;;;;;;;25.15;5.10;;;13.20;94.70;;;;;;5071769;28;20036;-74
2024/02/28 02:51:04;;;;;;;25.83;5.28;;;13.20;94.70;;;;;;5071981;28;20025;-72
2024/02/28 02:53:30;;;;;;;21.95;5.20;;;13.20;94.70;;;;;;5071917;28;20580;-73
2024/02/28 02:55:55;;;;;;;26.05;4.82;;;13.30;94.60;;;;;;5071754;28;20029;-73
2024/02/28 02:58:21;;;;;;;27.35;5.25;;;13.30;94.60;;;;;;5071738;28;20028;-74
2024/02/28 03:00:47;;;;;;;21.98;5.32;;;13.30;94.60;;;;;;5071774;28;20082;-74
2024/02/28 03:03:12;;;;;;;25.38;5.93;;;13.30;94.50;;;;;;5071774;28;20040;-74
2024/02/28 03:05:38;;;;;;;28.05;5.22;;;13.30;94.50;;;;;;5071698;28;20526;-74
2024/02/28 03:08:04;;;;;;;25.73;5.20;;;13.30;94.50;;;;;;5071543;28;20472;-73
2024/02/28 03:10:30;;;;;;;32.85;5.05;;;13.30;94.40;;;;;;5074745;28;20345;-73
2024/02/28 03:12:55;;;;;;;22.42;5.38;;;13.30;94.40;;;;;;5075121;28;20037;-74
2024/02/28 03:15:21;;;;;;;30.02;5.90;;;13.30;94.40;;;;;;5075284;28;20039;-74
2024/02/28 03:17:47;;;;;;;25.05;5.43;;;13.40;94.30;;;;;;5075376;28;20487;-73
2024/02/28 03:20:15;;;;;;;21.30;5.40;;;13.40;94.30;;;;;;5075490;28;20028;-74
2024/02/28 03:22:41;;;;;;;19.08;5.43;;;13.40;94.30;;;;;;5075379;28;20031;-74
2024/02/28 03:25:07;;;;;;;25.35;5.88;;;13.40;94.20;;;;;;5075376;28;20028;-73
2024/02/28 03:27:33;;;;;;;33.40;5.68;;;13.40;94.20;;;;;;5075208;28;20029;-71
2024/02/28 03:29:59;;;;;;;24.88;5.93;;;13.40;94.10;;;;;;5075012;28;20036;-74
2024/02/28 03:32:24;;;;;;;30.30;6.20;;;13.50;94.10;;;;;;5074504;28;20047;-75
2024/02/28 03:34:50;;;;;;;31.60;6.03;;;13.50;94.20;;;;;;5075059;28;20487;-74
2024/02/28 03:37:16;;;;;;;20.73;5.22;;;13.50;94.10;;;;;;5075044;28;20082;-73
2024/02/28 03:39:41;;;;;;;32.17;5.50;;;13.50;94.10;;;;;;5074613;28;20037;-73
2024/02/28 03:42:07;;;;;;;26.70;5.05;;;13.50;94.00;;;;;;5074862;28;20029;-73
2024/02/28 03:44:33;;;;;;;28.38;5.85;;;13.50;94.00;;;;;;5074744;28;20084;-74
2024/02/28 03:46:58;;;;;;;26.65;6.20;;;13.50;93.90;;;;;;5074486;28;20559;-74
2024/02/28 03:49:24;;;;;;;27.73;5.30;;;13.50;93.90;;;;;;5074645;28;20406;-74
2024/02/28 03:51:50;;;;;;;25.52;5.63;;;13.50;94.00;;;;;;5074420;28;20400;-74
2024/02/28 03:54:16;;;;;;;23.55;5.65;;;13.50;93.80;;;;;;5074621;28;20032;-73
2024/02/28 03:56:42;;;;;;;31.25;5.65;;;13.50;94.00;;;;;;5074784;28;20033;-74
2024/02/28 03:59:07;;;;;;;23.15;4.72;;;13.50;93.90;;;;;;5074205;28;20039;-73
2024/02/28 04:01:33;;;;;;;26.00;5.38;;;13.50;93.90;;;;;;5074504;28;20113;-75
2024/02/28 04:03:59;;;;;;;34.88;5.57;;;13.50;93.90;;;;;;5074159;28;20044;-73
2024/02/28 04:06:25;;;;;;;34.65;5.97;;;13.50;93.90;;;;;;5056280;28;20403;-73
2024/02/28 04:08:51;;;;;;;30.27;5.35;;;13.50;93.90;;;;;;5074372;28;20492;-73
2024/02/28 04:11:16;;;;;;;27.08;5.15;;;13.50;93.80;;;;;;5074088;28;20067;-74
2024/02/28 04:13:42;;;;;;;24.73;5.25;;;13.60;93.80;;;;;;5074130;28;20032;-74
2024/02/28 04:16:09;;;;;;;25.23;5.05;;;13.50;93.80;;;;;;5074033;28;20032;-73
2024/02/28 04:18:35;;;;;;;30.67;6.47;;;13.50;93.80;;;;;;5073799;28;20060;-73
2024/02/28 04:21:01;;;;;;;26.50;5.25;;;13.50;93.80;;;;;;5073625;28;20036;-75
2024/02/28 04:23:27;;;;;;;34.35;6.05;;;13.50;93.80;;;;;;5073664;28;20491;-73
2024/02/28 04:25:52;;;;;;;28.63;5.97;;;13.50;93.80;;;;;;5073895;28;20099;-73
2024/02/28 04:28:18;;;;;;;30.98;5.80;;;13.50;93.80;;;;;;5073808;28;20119;-74
2024/02/28 04:30:44;;;;;;;27.95;5.35;;;13.40;93.70;;;;;;5073490;28;20040;-73
2024/02/28 04:33:09;;;;;;;24.33;5.50;;;13.40;93.70;;;;;;5073954;28;20056;-72
2024/02/28 04:35:35;;;;;;;26.98;5.47;;;13.40;93.60;;;;;;5073714;28;20029;-74
2024/02/28 04:38:01;;;;;;;27.95;5.30;;;13.50;93.70;;;;;;5073531;28;20040;-73
2024/02/28 04:40:26;;;;;;;24.90;5.57;;;13.50;93.70;;;;;;5073545;28;20081;-73
2024/02/28 04:42:52;;;;;;;26.85;5.63;;;13.50;93.70;;;;;;5073111;28;20035;-74
2024/02/28 04:45:18;;;;;;;30.85;4.93;;;13.50;93.70;;;;;;5073594;28;20035;-74
2024/02/28 04:47:43;;;;;;;23.58;6.30;;;13.60;93.70;;;;;;5073701;28;20063;-74
2024/02/28 04:50:10;;;;;;;28.73;6.28;;;13.60;93.70;;;;;;5073292;28;20134;-75
2024/02/28 04:52:35;;;;;;;31.15;6.03;;;13.60;93.60;;;;;;5073207;28;20370;-73
2024/02/28 04:55:01;;;;;;;24.75;5.45;;;13.60;93.50;;;;;;5073203;28;20035;-74
2024/02/28 04:57:27;;;;;;;27.17;6.20;;;13.60;93.50;;;;;;5073084;28;20539;-74
2024/02/28 04:59:53;;;;;;;34.78;7.18;;;13.60;93.50;;;;;;5073414;28;20032;-75
2024/02/28 05:02:19;;;;;;;31.50;5.65;;;13.60;93.40;;;;;;5055137;28;20550;-73
2024/02/28 05:04:44;;;;;;;31.65;6.90;;;13.70;93.30;;;;;;5072964;28;20098;-74
2024/02/28 05:07:10;;;;;;;37.13;7.30;;;13.70;93.40;;;;;;5072826;28;20052;-74
2024/02/28 05:09:36;;;;;;;34.25;6.25;;;13.70;93.20;;;;;;5072991;28;20391;-74
2024/02/28 05:12:02;;;;;;;34.33;7.47;;;13.70;93.20;;;;;;5072914;28;20449;-73
2024/02/28 05:14:28;;;;;;;29.83;6.75;;;13.70;93.20;;;;;;5072664;28;20542;-74
2024/02/28 05:16:53;;;;;;;37.75;7.93;;;13.80;93.20;;;;;;5073042;28;20032;-73
2024/02/28 05:19:19;;;;;;;36.25;6.72;;;13.80;93.00;;;;;;5054857;28;20495;-74
2024/02/28 05:21:45;;;;;;;40.47;9.38;;;13.80;92.90;;;;;;5072855;28;20093;-74
2024/02/28 05:24:12;;;;;;;33.63;6.93;;;13.80;93.00;;;;;;5054646;28;20045;-73
2024/02/28 05:26:38;;;;;;;33.05;7.35;;;13.90;92.90;;;;;;5072748;28;20037;-73
2024/02/28 05:29:05;;;;;;;38.30;7.07;;;13.90;92.60;;;;;;5072758;28;20384;-73
2024/02/28 05:31:32;;;;;;;22.88;5.80;;;14.00;92.40;;;;;;5071747;28;20048;-74
2024/02/28 05:33:59;;;;;;;31.77;6.13;;;14.00;92.30;;;;;;5072875;28;20044;-74
2024/02/28 05:36:26;;;;;;;27.58;6.75;;;14.00;92.20;;;;;;5072432;28;20035;-75
2024/02/28 05:38:53;;;;;;;28.98;6.88;;;14.00;92.20;;;;;;5072452;28;20159;-74
2024/02/28 05:41:19;;;;;;;37.80;7.72;;;14.10;92.00;;;;;;5072366;28;20033;-72
2024/02/28 05:43:46;;;;;;;34.15;7.45;;;14.10;91.90;;;;;;5072687;28;20036;-75
2024/02/28 05:46:13;;;;;;;44.80;8.20;;;14.10;91.80;;;;;;5072445;28;20095;-73
2024/02/28 05:48:40;;;;;;;42.63;7.88;;;14.10;91.70;;;;;;5072351;28;20508;-75
2024/02/28 05:51:06;;;;;;;38.92;7.22;;;14.20;91.60;;;;;;5072521;28;20067;-74
2024/02/28 05:53:38;;;;;;;34.00;6.80;;;14.20;91.50;;;;;;5072586;28;20356;-74
2024/02/28 05:56:13;;;;;;;37.20;7.90;;;14.20;91.40;;;;;;5072824;28;20044;-74
2024/02/28 05:58:43;;;;;;;38.33;7.65;;;14.20;91.20;;;;;;5072487;28;20110;-74
2024/02/28 06:01:10;;;;;;;42.15;7.78;;;14.30;91.10;;;;;;5072162;28;20044;-74
2024/02/28 06:03:36;;;;;;;36.53;7.80;;;14.30;91.00;;;;;;5072263;28;20056;-74
2024/02/28 06:06:04;;;;;;;37.70;7.00;;;14.30;90.90;;;;;;5072422;28;20067;-75
2024/02/28 06:08:40;;;;;;;38.78;8.68;;;14.40;90.90;;;;;;5072438;28;20029;-74
2024/02/28 06:11:06;;;;;;;35.55;7.97;;;14.40;90.80;;;;;;5072444;28;20020;-74
2024/02/28 06:13:32;;;;;;;41.33;6.85;;;14.40;90.80;;;;;;5072351;28;20033;-73
2024/02/28 06:15:58;;;;;;;48.30;8.38;;;14.40;90.80;;;;;;5072108;28;20044;-74
2024/02/28 06:18:28;;;;;;;42.55;8.63;;;14.40;90.70;;;;;;5071974;28;20032;-74
2024/02/28 06:20:55;;;;;;;35.33;8.85;;;14.40;90.60;;;;;;5071649;28;20033;-75
2024/02/28 06:23:22;;;;;;;42.28;7.85;;;14.50;90.60;;;;;;5071701;28;20113;-74
2024/02/28 06:25:48;;;;;;;36.80;7.22;;;14.50;90.40;;;;;;5071992;28;20134;-74
2024/02/28 06:28:14;;;;;;;37.17;7.30;;;14.50;90.50;;;;;;5053767;28;20031;-75
2024/02/28 06:30:40;;;;;;;42.75;7.25;;;14.50;90.40;;;;;;5071720;28;20052;-74
2024/02/28 06:33:08;;;;;;;40.28;8.43;;;14.50;90.20;;;;;;5071585;28;20040;-73
2024/02/28 06:35:34;;;;;;;36.85;7.13;;;14.60;90.20;;;;;;5071689;28;20056;-75
2024/02/28 06:38:00;;;;;;;32.03;7.57;;;14.60;90.10;;;;;;5071821;28;20040;-74
2024/02/28 06:40:26;;;;;;;31.10;7.25;;;14.60;90.00;;;;;;5071565;28;20033;-75
2024/02/28 06:42:51;;;;;;;26.52;6.32;;;14.60;89.80;;;;;;5072286;28;20067;-75
2024/02/28 06:45:17;;;;;;;44.15;7.55;;;14.70;89.80;;;;;;5075298;28;20090;-74
2024/02/28 06:47:45;;;;;;;36.35;8.27;;;14.70;89.30;;;;;;5075237;28;20488;-74
2024/02/28 06:50:10;;;;;;;40.25;7.93;;;14.70;89.10;;;;;;5075234;28;20043;-75
2024/02/28 06:52:36;;;;;;;35.50;7.07;;;14.80;88.80;;;;;;5075373;28;20029;-75
2024/02/28 06:55:09;;;;;;;36.92;7.55;;;14.80;88.60;;;;;;5075343;28;20025;-74
2024/02/28 06:57:39;;;;;;;44.35;7.43;;;14.80;88.40;;;;;;5075302;28;21263;-74
2024/02/28 07:00:08;;;;;;;35.40;7.30;;;14.80;88.40;;;;;;5075241;28;20029;-74
2024/02/28 07:02:34;;;;;;;41.40;7.95;;;14.80;88.20;;;;;;5075529;28;20074;-75
2024/02/28 07:05:00;;;;;;;33.88;7.65;;;14.80;88.20;;;;;;5075294;28;20090;-74
2024/02/28 07:07:26;;;;;;;37.90;7.78;;;14.80;88.10;;;;;;5075206;28;20064;-75
2024/02/28 07:09:53;;;;;;;35.67;7.85;;;14.90;88.00;;;;;;5057405;28;20123;-75
2024/02/28 07:12:18;;;;;;;34.58;6.45;;;14.90;88.00;;;;;;5075281;28;20095;-74
2024/02/28 07:14:44;;;;;;;36.75;7.35;;;14.90;87.70;;;;;;5075744;28;20479;-75
2024/02/28 07:17:10;;;;;;;37.33;7.90;;;14.90;87.70;;;;;;5076059;28;20170;-75
2024/02/28 07:19:36;;;;;;;32.78;6.63;;;14.90;87.50;;;;;;5074866;28;20024;-75
2024/02/28 07:22:02;;;;;;;36.05;7.25;;;14.90;87.40;;;;;;5075192;28;20036;-73
2024/02/28 07:24:28;;;;;;;37.45;7.50;;;15.00;87.20;;;;;;5074785;28;20078;-75
2024/02/28 07:26:54;;;;;;;39.75;7.78;;;15.00;87.00;;;;;;5075028;28;20107;-75
2024/02/28 07:29:19;;;;;;;31.42;6.78;;;15.00;86.90;;;;;;5074708;28;20043;-75
2024/02/28 07:31:45;;;;;;;42.28;7.50;;;15.10;87.00;;;;;;5074510;28;20049;-75
2024/02/28 07:34:11;;;;;;;40.33;7.47;;;15.10;86.30;;;;;;5056398;28;20485;-74
2024/02/28 07:36:37;;;;;;;37.35;7.53;;;15.20;86.50;;;;;;5074641;28;20032;-75
2024/02/28 07:39:03;;;;;;;36.60;8.40;;;15.30;85.70;;;;;;5074569;28;20039;-75
2024/02/28 07:41:29;;;;;;;38.67;7.22;;;15.40;85.60;;;;;;5074633;28;20511;-74
2024/02/28 07:43:54;;;;;;;37.03;7.05;;;15.50;85.60;;;;;;5074254;28;20044;-74
2024/02/28 07:46:20;;;;;;;34.00;7.00;;;15.50;85.00;;;;;;5073999;28;20187;-75
2024/02/28 07:48:46;;;;;;;43.63;7.05;;;15.60;84.80;;;;;;5074225;28;20102;-74
2024/02/28 07:51:11;;;;;;;42.75;7.70;;;15.70;84.80;;;;;;5074422;28;20456;-74
2024/02/28 07:53:37;;;;;;;46.30;8.20;;;15.70;84.00;;;;;;5074297;28;20055;-75
2024/02/28 07:56:03;;;;;;;36.72;7.80;;;15.80;83.70;;;;;;5073559;28;20109;-75
2024/02/28 07:58:29;;;;;;;42.30;7.68;;;15.90;83.70;;;;;;5074098;28;20472;-73
2024/02/28 08:00:54;;;;;;;41.85;8.27;;;15.90;83.30;;;;;;5074437;28;20107;-76
2024/02/28 08:03:20;;;;;;;41.75;7.68;;;16.00;83.10;;;;;;5074380;28;20079;-76
2024/02/28 08:05:48;;;;;;;31.35;6.93;;;16.10;83.10;;;;;;5074136;28;20033;-75
2024/02/28 08:08:14;;;;;;;33.20;7.32;;;16.10;83.00;;;;;;5074163;28;20476;-75
2024/02/28 08:10:39;;;;;;;46.83;8.80;;;16.10;82.70;;;;;;5074123;28;20024;-74
2024/02/28 08:13:05;;;;;;;34.17;6.93;;;16.20;82.70;;;;;;5056236;28;20041;-74
2024/02/28 08:15:32;;;;;;;49.85;7.70;;;16.20;82.30;;;;;;5074083;28;20039;-76
2024/02/28 08:17:58;;;;;;;55.35;9.32;;;16.20;82.20;;;;;;5073779;28;20488;-74
2024/02/28 08:20:24;;;;;;;39.22;7.30;;;16.30;81.90;;;;;;5073695;28;20032;-74
2024/02/28 08:22:52;;;;;;;49.58;8.43;;;16.40;81.90;;;;;;5073825;28;20067;-75
2024/02/28 08:25:18;;;;;;;31.83;7.88;;;16.40;81.50;;;;;;5073759;28;20044;-75
2024/02/28 08:27:44;;;;;;;36.83;7.82;;;16.50;81.30;;;;;;5073705;28;20119;-75
2024/02/28 08:30:10;;;;;;;38.90;7.35;;;16.50;81.00;;;;;;5073303;28;20103;-75
2024/02/28 08:32:36;;;;;;;37.78;8.77;;;16.60;80.90;;;;;;5073610;28;20117;-75
2024/02/28 08:35:02;;;;;;;36.50;7.30;;;16.60;80.70;;;;;;5073486;28;20439;-74
2024/02/28 08:37:28;;;;;;;41.47;8.35;;;16.70;80.60;;;;;;5073248;28;20025;-75
2024/02/28 08:39:57;;;;;;;37.47;6.78;;;16.70;80.40;;;;;;5073350;28;20379;-76
2024/02/28 08:42:25;;;;;;;33.75;6.35;;;16.80;79.90;;;;;;5072883;28;20481;-75
2024/02/28 08:44:51;;;;;;;35.38;7.28;;;16.80;79.70;;;;;;5073480;28;20063;-75
2024/02/28 08:47:18;;;;;;;40.30;7.50;;;16.90;79.40;;;;;;5055203;28;20480;-75
2024/02/28 08:49:44;;;;;;;31.10;7.05;;;17.00;79.00;;;;;;5073244;28;20426;-74
2024/02/28 08:52:09;;;;;;;41.63;7.90;;;17.10;78.70;;;;;;5073687;28;20033;-75
2024/02/28 08:54:35;;;;;;;38.80;6.47;;;17.10;78.30;;;;;;5073388;28;20032;-75
2024/02/28 08:57:01;;;;;;;37.83;7.20;;;17.20;77.90;;;;;;5073128;28;20475;-74
2024/02/28 08:59:27;;;;;;;39.08;7.32;;;17.30;77.20;;;;;;5073135;28;20075;-75
2024/02/28 09:01:52;;;;;;;45.83;8.20;;;17.30;77.20;;;;;;5054717;28;20055;-75
2024/02/28 09:04:18;;;;;;;36.88;7.60;;;17.40;77.00;;;;;;5072980;28;20051;-75
2024/02/28 09:06:44;;;;;;;40.42;7.85;;;17.30;77.50;;;;;;5072098;28;20031;-76
2024/02/28 09:09:09;;;;;;;40.17;7.65;;;17.30;78.30;;;;;;5072625;28;20082;-75
2024/02/28 09:11:35;;;;;;;39.03;6.93;;;17.20;78.80;;;;;;5072603;28;20035;-75
2024/02/28 09:14:01;;;;;;;26.23;6.63;;;17.10;79.20;;;;;;5072997;28;20072;-76
2024/02/28 09:16:26;;;;;;;27.80;7.13;;;17.00;79.30;;;;;;5073009;28;20033;-75
2024/02/28 09:18:52;;;;;;;37.22;7.53;;;17.00;79.60;;;;;;5073064;28;20475;-74
2024/02/28 09:21:18;;;;;;;29.17;6.93;;;16.90;79.60;;;;;;5072720;28;20025;-75
2024/02/28 09:23:43;;;;;;;30.20;7.28;;;17.00;80.00;;;;;;5072579;28;20166;-75
2024/02/28 09:26:10;;;;;;;31.98;7.35;;;17.10;80.00;;;;;;5072669;28;20112;-74
2024/02/28 09:28:35;;;;;;;27.67;6.78;;;17.20;79.90;;;;;;5072735;28;20037;-75
2024/02/28 09:31:01;;;;;;;24.63;6.85;;;17.20;80.10;;;;;;5072568;28;20044;-75
2024/02/28 09:33:27;;;;;;;27.88;7.03;;;17.20;79.50;;;;;;5072834;28;20028;-75
2024/02/28 09:35:53;;;;;;;26.45;6.20;;;17.20;79.70;;;;;;5072654;28;20036;-75
2024/02/28 09:38:19;;;;;;;27.27;7.00;;;17.20;79.80;;;;;;5072506;28;20025;-75
2024/02/28 09:40:48;;;;;;;33.78;6.82;;;17.30;80.10;;;;;;5072766;28;20056;-76
2024/02/28 09:43:31;;;;;;;31.42;6.65;;;17.30;80.10;;;;;;5072899;28;20043;-75
2024/02/28 09:46:03;;;;;;;38.55;7.57;;;17.30;80.40;;;;;;5072851;28;20055;-72
2024/02/28 09:48:30;;;;;;;29.48;6.90;;;17.40;80.70;;;;;;5072802;28;20025;-75
2024/02/28 09:50:57;;;;;;;30.88;6.95;;;17.40;80.50;;;;;;5072311;28;20438;-74
2024/02/28 09:53:23;;;;;;;41.92;7.30;;;17.50;80.50;;;;;;5072514;28;20169;-75
2024/02/28 09:55:50;;;;;;;38.65;7.00;;;17.60;80.40;;;;;;5072598;28;20508;-75
2024/02/28 09:58:17;;;;;;;37.33;7.53;;;17.70;80.20;;;;;;5072575;28;20029;-75
2024/02/28 10:00:44;;;;;;;33.10;7.10;;;17.80;80.10;;;;;;5072123;28;20033;-74
2024/02/28 10:03:18;;;;;;;30.98;7.72;;;17.90;80.00;;;;;;5072131;28;20462;-75
2024/02/28 10:05:45;;;;;;;29.70;6.47;;;18.00;79.70;;;;;;5072434;28;20036;-74
2024/02/28 10:08:13;;;;;;;22.38;6.43;;;18.10;79.10;;;;;;5072314;28;20043;-74
2024/02/28 10:10:44;;;;;;;26.67;7.43;;;18.10;78.70;;;;;;5070925;28;20021;-74
2024/02/28 10:13:10;;;;;;;40.58;8.25;;;18.10;78.40;;;;;;5072159;28;20036;-74
2024/02/28 10:15:35;;;;;;;25.15;6.57;;;18.20;78.30;;;;;;5071761;28;20033;-76
2024/02/28 10:18:01;;;;;;;32.35;7.03;;;18.20;78.30;;;;;;5073075;28;20036;-75
2024/02/28 10:20:27;;;;;;;28.45;7.28;;;18.30;78.20;;;;;;5076035;28;20052;-76
2024/02/28 10:22:53;;;;;;;28.70;7.22;;;18.30;78.40;;;;;;5076298;28;20507;-76
2024/02/28 10:25:19;;;;;;;33.05;7.18;;;18.30;78.30;;;;;;5076347;28;20039;-75
2024/02/28 10:27:47;;;;;;;28.42;7.50;;;18.30;77.90;;;;;;5075784;28;20029;-75
2024/02/28 10:30:15;;;;;;;29.13;7.18;;;18.40;77.80;;;;;;5075444;28;20116;-74
2024/02/28 10:32:51;;;;;;;33.05;6.93;;;18.40;77.70;;;;;;5075687;28;20059;-74
2024/02/28 10:35:20;;;;;;;35.70;6.57;;;18.40;78.00;;;;;;5075733;28;20044;-75
2024/02/28 10:37:47;;;;;;;35.15;7.43;;;18.40;77.00;;;;;;5076335;28;20029;-77
2024/02/28 10:40:14;;;;;;;32.92;7.93;;;18.40;76.80;;;;;;5076900;28;20086;-75
2024/02/28 10:42:42;;;;;;;38.10;7.55;;;18.40;76.40;;;;;;5075798;28;20336;-75
2024/02/28 10:45:10;;;;;;;32.22;7.35;;;18.40;76.10;;;;;;5075292;28;20048;-75
2024/02/28 10:47:39;;;;;;;30.20;6.35;;;18.40;76.20;;;;;;5075335;28;20115;-75
2024/02/28 10:50:05;;;;;;;28.83;6.50;;;18.30;77.00;;;;;;5075421;28;20357;-74
2024/02/28 10:52:33;;;;;;;31.83;7.78;;;18.30;78.00;;;;;;5075539;28;20421;-75
2024/02/28 10:55:01;;;;;;;27.02;6.80;;;18.20;78.20;;;;;;5075404;28;20090;-75
2024/02/28 10:57:29;;;;;;;31.20;6.97;;;18.20;78.60;;;;;;5075212;28;20037;-75
2024/02/28 10:59:56;;;;;;;33.10;6.88;;;18.10;78.90;;;;;;5075302;28;20107;-76
2024/02/28 11:02:23;;;;;;;29.25;6.90;;;18.10;79.10;;;;;;5075429;28;20033;-75
2024/02/28 11:04:52;;;;;;;31.40;6.97;;;18.10;79.00;;;;;;5075160;28;20069;-74
2024/02/28 11:07:21;;;;;;;29.33;6.93;;;18.20;78.90;;;;;;5074951;28;20056;-74
2024/02/28 11:09:47;;;;;;;34.85;7.68;;;18.20;78.70;;;;;;5075061;28;20402;-75
2024/02/28 11:12:29;;;;;;;30.50;6.95;;;18.20;78.10;;;;;;5075224;28;20029;-76
2024/02/28 11:15:03;;;;;;;34.63;6.13;;;18.30;77.40;;;;;;5075366;28;20032;-75
2024/02/28 11:17:31;;;;;;;24.85;6.07;;;18.30;76.60;;;;;;5075257;28;20215;-74
2024/02/28 11:19:56;;;;;;;24.02;6.38;;;18.30;76.30;;;;;;5074987;28;20029;-74
2024/02/28 11:22:22;;;;;;;26.77;6.25;;;18.40;76.00;;;;;;5074800;28;20396;-75
2024/02/28 11:24:51;;;;;;;25.58;5.10;;;18.50;75.50;;;;;;5074938;28;20098;-75
2024/02/28 11:27:16;;;;;;;28.42;6.97;;;18.70;75.30;;;;;;5074977;28;20033;-76
2024/02/28 11:29:45;;;;;;;25.08;6.50;;;18.80;74.40;;;;;;5074057;28;20388;-75
2024/02/28 11:32:11;;;;;;;33.83;8.20;;;18.90;74.00;;;;;;5074626;28;20169;-75
2024/02/28 11:34:40;;;;;;;33.05;7.88;;;19.00;73.50;;;;;;5074652;28;20028;-76
2024/02/28 11:37:06;;;;;;;28.25;6.75;;;19.00;73.40;;;;;;5074236;28;20491;-75
2024/02/28 11:39:32;;;;;;;28.17;6.50;;;19.00;73.10;;;;;;5074583;28;20029;-75
2024/02/28 11:42:14;;;;;;;28.60;7.03;;;19.00;72.90;;;;;;5074443;28;20116;-75
2024/02/28 11:44:40;;;;;;;30.15;7.22;;;19.10;73.00;;;;;;5074260;28;20053;-76
2024/02/28 11:47:11;;;;;;;37.17;5.97;;;19.10;71.90;;;;;;5074447;28;20430;-74
2024/02/28 11:49:39;;;;;;;26.88;5.57;;;19.20;71.40;;;;;;5074542;28;20068;-75
2024/02/28 11:52:06;;;;;;;32.70;5.35;;;19.20;71.10;;;;;;5074719;28;20025;-75
2024/02/28 11:54:31;;;;;;;22.73;5.90;;;19.30;71.10;;;;;;5074324;28;20044;-75
2024/02/28 11:56:58;;;;;;;27.58;5.05;;;19.30;70.90;;;;;;5074549;28;20028;-75
2024/02/28 11:59:23;;;;;;;22.33;5.50;;;19.20;70.70;;;;;;5074637;28;20040;-75
2024/02/28 12:01:50;;;;;;;26.85;5.75;;;19.10;70.70;;;;;;5074287;28;20115;-75
2024/02/28 12:04:16;;;;;;;23.52;5.15;;;19.10;70.80;;;;;;5074505;28;20151;-74
2024/02/28 12:06:42;;;;;;;30.23;5.68;;;19.20;71.10;;;;;;5074146;28;20035;-75
2024/02/28 12:09:11;;;;;;;27.80;5.28;;;19.20;71.30;;;;;;5074090;28;20403;-75
2024/02/28 12:11:38;;;;;;;30.80;5.97;;;19.10;71.30;;;;;;5073713;28;20040;-76
2024/02/28 12:14:07;;;;;;;37.50;6.43;;;19.10;71.70;;;;;;5073991;28;20036;-75
2024/02/28 12:16:32;;;;;;;26.75;6.32;;;19.00;72.20;;;;;;5055691;28;20500;-75
2024/02/28 12:18:58;;;;;;;22.27;5.43;;;19.00;72.20;;;;;;5073493;28;20047;-75
2024/02/28 12:21:24;;;;;;;27.83;6.07;;;19.00;72.20;;;;;;5073672;28;20071;-75
2024/02/28 12:23:50;;;;;;;32.20;5.82;;;18.90;72.60;;;;;;5073581;28;20407;-75
2024/02/28 12:26:19;;;;;;;23.67;5.90;;;18.90;72.80;;;;;;5073448;28;20436;-74
2024/02/28 12:28:45;;;;;;;25.38;6.65;;;18.90;73.10;;;;;;5073692;28;20369;-75
2024/02/28 12:31:12;;;;;;;24.15;5.30;;;18.90;73.40;;;;;;5073409;28;20090;-74